createdAt,value
2017-12-12T00:00:03.442Z,6.7
2017-12-12T00:01:13.129Z,6.64
2017-12-12T00:02:22.837Z,6.72
2017-12-12T00:03:32.790Z,6.75
2017-12-12T00:04:42.489Z,6.68
2017-12-12T00:05:51.663Z,6.64
2017-12-12T00:07:01.628Z,6.7
2017-12-12T00:08:11.583Z,6.62
2017-12-12T00:09:21.268Z,6.62
2017-12-12T00:10:30.702Z,6.59
2017-12-12T00:11:40.438Z,6.64
2017-12-12T00:12:50.137Z,6.6
2017-12-12T00:13:59.877Z,6.57
2017-12-12T00:15:09.579Z,6.62
2017-12-12T00:16:19.268Z,6.53
2017-12-12T00:17:28.712Z,6.56
2017-12-12T00:18:38.678Z,6.6
2017-12-12T00:19:48.368Z,6.62
2017-12-12T00:20:58.621Z,6.56
2017-12-12T00:22:08.580Z,6.53
2017-12-12T00:23:18.533Z,6.59
2017-12-12T00:24:27.708Z,6.57
2017-12-12T00:25:37.400Z,6.54
2017-12-12T00:26:47.100Z,6.59
2017-12-12T00:27:57.048Z,6.62
2017-12-12T00:29:06.985Z,6.59
2017-12-12T00:30:16.670Z,6.52
2017-12-12T00:31:26.102Z,6.52
2017-12-12T00:32:36.045Z,6.54
2017-12-12T00:33:45.473Z,6.6
2017-12-12T00:34:55.414Z,6.59
2017-12-12T00:36:05.106Z,6.52
2017-12-12T00:37:14.524Z,6.54
2017-12-12T00:38:24.214Z,6.59
2017-12-12T00:39:34.206Z,6.57
2017-12-12T00:40:43.912Z,6.57
2017-12-12T00:41:53.870Z,6.57
2017-12-12T00:43:03.819Z,6.56
2017-12-12T00:44:13.254Z,6.52
2017-12-12T00:45:22.951Z,6.49
2017-12-12T00:46:32.640Z,6.47
2017-12-12T00:47:42.339Z,6.52
2017-12-12T00:48:51.774Z,6.5
2017-12-12T00:50:01.741Z,6.56
2017-12-12T00:51:11.695Z,6.57
2017-12-12T00:52:21.651Z,6.54
2017-12-12T00:53:31.344Z,6.59
2017-12-12T00:54:41.039Z,6.54
2017-12-12T00:55:50.720Z,6.53
2017-12-12T00:57:00.420Z,6.54
2017-12-12T00:58:10.105Z,6.53
2017-12-12T00:59:19.547Z,6.54
2017-12-12T01:00:29.227Z,6.56
2017-12-12T01:01:39.162Z,6.52
2017-12-12T01:02:48.860Z,6.53
2017-12-12T01:03:58.568Z,6.5
2017-12-12T01:05:08.517Z,6.53
2017-12-12T01:06:18.471Z,6.5
2017-12-12T01:07:27.899Z,6.57
2017-12-12T01:08:37.855Z,6.52
2017-12-12T01:09:47.328Z,6.5
2017-12-12T01:10:57.282Z,6.5
2017-12-12T01:12:06.960Z,6.62
2017-12-12T01:13:16.690Z,6.6
2017-12-12T01:14:26.114Z,6.52
2017-12-12T01:15:36.055Z,6.54
2017-12-12T01:16:46.002Z,6.57
2017-12-12T01:17:55.939Z,6.62
2017-12-12T01:19:05.109Z,6.56
2017-12-12T01:20:14.824Z,6.59
2017-12-12T01:21:24.778Z,6.62
2017-12-12T01:22:34.475Z,6.56
2017-12-12T01:23:44.474Z,6.57
2017-12-12T01:24:54.181Z,6.57
2017-12-12T01:26:03.875Z,6.57
2017-12-12T01:27:13.825Z,6.6
2017-12-12T01:28:23.262Z,6.59
2017-12-12T01:29:33.205Z,6.59
2017-12-12T01:30:42.892Z,6.59
2017-12-12T01:31:52.833Z,6.54
2017-12-12T01:33:02.778Z,6.59
2017-12-12T01:34:12.724Z,6.57
2017-12-12T01:35:22.676Z,6.52
2017-12-12T01:36:32.378Z,6.57
2017-12-12T01:37:42.335Z,6.49
2017-12-12T01:38:51.773Z,6.57
2017-12-12T01:40:01.470Z,6.62
2017-12-12T01:41:11.183Z,6.62
2017-12-12T01:42:21.132Z,6.64
2017-12-12T01:43:31.076Z,6.54
2017-12-12T01:44:40.506Z,6.57
2017-12-12T01:45:50.191Z,6.56
2017-12-12T01:46:59.872Z,6.65
2017-12-12T01:48:09.048Z,6.53
2017-12-12T01:49:18.488Z,6.56
2017-12-12T01:50:28.437Z,6.56
2017-12-12T01:51:38.117Z,6.7
2017-12-12T01:52:47.830Z,6.59
2017-12-12T01:53:57.518Z,6.6
2017-12-12T01:55:07.474Z,6.59
2017-12-12T01:56:17.470Z,6.62
2017-12-12T01:57:26.902Z,6.62
2017-12-12T01:58:36.610Z,6.59
2017-12-12T01:59:46.554Z,6.71
2017-12-12T02:00:56.235Z,6.67
2017-12-12T02:02:05.675Z,6.72
2017-12-12T02:03:15.355Z,6.68
2017-12-12T02:04:25.313Z,6.74
2017-12-12T02:05:35.270Z,6.78
2017-12-12T02:06:45.212Z,6.77
2017-12-12T02:07:54.904Z,6.71
2017-12-12T02:09:04.334Z,6.71
2017-12-12T02:10:14.023Z,6.8
2017-12-12T02:11:23.461Z,6.78
2017-12-12T02:12:33.160Z,6.83
2017-12-12T02:13:43.101Z,6.8
2017-12-12T02:14:52.539Z,6.71
2017-12-12T02:16:02.221Z,6.75
2017-12-12T02:17:12.177Z,6.71
2017-12-12T02:18:21.856Z,6.74
2017-12-12T02:19:31.274Z,6.68
2017-12-12T02:20:40.714Z,6.67
2017-12-12T02:21:50.662Z,6.74
2017-12-12T02:23:00.352Z,6.8
2017-12-12T02:24:10.037Z,6.74
2017-12-12T02:25:19.980Z,6.74
2017-12-12T02:26:29.923Z,6.8
2017-12-12T02:27:39.619Z,6.86
2017-12-12T02:28:49.306Z,6.85
2017-12-12T02:29:59.268Z,6.75
2017-12-12T02:31:08.753Z,6.83
2017-12-12T02:32:17.920Z,6.83
2017-12-12T02:33:27.619Z,6.85
2017-12-12T02:34:37.331Z,6.86
2017-12-12T02:35:47.282Z,6.82
2017-12-12T02:36:56.715Z,6.87
2017-12-12T02:38:06.155Z,6.86
2017-12-12T02:39:16.121Z,6.87
2017-12-12T02:40:25.559Z,6.87
2017-12-12T02:41:35.513Z,6.9
2017-12-12T02:42:44.942Z,6.93
2017-12-12T02:43:54.888Z,6.95
2017-12-12T02:45:04.832Z,6.93
2017-12-12T02:46:14.034Z,6.97
2017-12-12T02:47:23.979Z,6.92
2017-12-12T02:48:33.931Z,6.97
2017-12-12T02:49:43.361Z,7.04
2017-12-12T02:50:52.790Z,7
2017-12-12T02:52:02.744Z,7.03
2017-12-12T02:53:12.707Z,7.03
2017-12-12T02:54:22.402Z,7.03
2017-12-12T02:55:32.105Z,7.14
2017-12-12T02:56:42.039Z,7.05
2017-12-12T02:57:51.743Z,7.07
2017-12-12T02:59:01.698Z,7.01
2017-12-12T03:00:11.386Z,7.07
2017-12-12T03:01:21.070Z,7.03
2017-12-12T03:02:31.010Z,7.01
2017-12-12T03:03:40.692Z,7.01
2017-12-12T03:04:50.636Z,7.04
2017-12-12T03:06:00.329Z,7.08
2017-12-12T03:07:10.045Z,7.15
2017-12-12T03:08:19.726Z,7.07
2017-12-12T03:09:29.664Z,7.04
2017-12-12T03:10:39.343Z,7.07
2017-12-12T03:11:49.061Z,7.14
2017-12-12T03:12:59.019Z,7.13
2017-12-12T03:14:08.449Z,7.15
2017-12-12T03:15:18.401Z,7.25
2017-12-12T03:16:28.349Z,7.26
2017-12-12T03:17:37.780Z,7.18
2017-12-12T03:18:47.480Z,7.28
2017-12-12T03:19:56.654Z,7.33
2017-12-12T03:21:06.592Z,7.18
2017-12-12T03:22:16.592Z,7.33
2017-12-12T03:23:26.272Z,7.25
2017-12-12T03:24:36.222Z,7.31
2017-12-12T03:25:45.660Z,7.28
2017-12-12T03:26:55.352Z,7.33
2017-12-12T03:28:04.517Z,7.39
2017-12-12T03:29:13.951Z,7.51
2017-12-12T03:30:23.894Z,7.44
2017-12-12T03:31:33.842Z,7.51
2017-12-12T03:32:43.014Z,7.51
2017-12-12T03:33:52.958Z,7.5
2017-12-12T03:35:02.391Z,7.53
2017-12-12T03:36:12.075Z,7.51
2017-12-12T03:37:22.026Z,7.55
2017-12-12T03:38:31.702Z,7.61
2017-12-12T03:39:41.142Z,7.61
2017-12-12T03:40:50.826Z,7.61
2017-12-12T03:42:00.780Z,7.59
2017-12-12T03:43:10.726Z,7.61
2017-12-12T03:44:20.725Z,7.66
2017-12-12T03:45:30.409Z,7.77
2017-12-12T03:46:40.119Z,7.69
2017-12-12T03:47:49.815Z,7.8
2017-12-12T03:48:59.493Z,7.77
2017-12-12T03:50:09.433Z,7.78
2017-12-12T03:51:19.382Z,7.81
2017-12-12T03:52:29.060Z,7.84
2017-12-12T03:53:38.484Z,7.75
2017-12-12T03:54:47.907Z,7.83
2017-12-12T03:55:57.846Z,7.74
2017-12-12T03:57:07.270Z,7.74
2017-12-12T03:58:17.224Z,7.87
2017-12-12T03:59:26.669Z,7.78
2017-12-12T04:00:36.356Z,7.81
2017-12-12T04:01:45.839Z,7.75
2017-12-12T04:02:55.271Z,7.81
2017-12-12T04:04:05.218Z,7.8
2017-12-12T04:05:14.927Z,7.83
2017-12-12T04:06:24.354Z,7.74
2017-12-12T04:07:34.344Z,7.8
2017-12-12T04:08:44.038Z,7.9
2017-12-12T04:09:53.724Z,7.81
2017-12-12T04:11:03.662Z,7.83
2017-12-12T04:12:13.157Z,7.9
2017-12-12T04:13:23.114Z,7.84
2017-12-12T04:14:33.065Z,7.91
2017-12-12T04:15:43.013Z,7.78
2017-12-12T04:16:52.699Z,7.87
2017-12-12T04:18:02.135Z,7.85
2017-12-12T04:19:12.074Z,7.8
2017-12-12T04:20:21.753Z,7.78
2017-12-12T04:21:31.178Z,7.85
2017-12-12T04:22:40.607Z,7.85
2017-12-12T04:23:50.290Z,7.87
2017-12-12T04:25:00.245Z,7.88
2017-12-12T04:26:10.255Z,7.9
2017-12-12T04:27:19.942Z,7.81
2017-12-12T04:28:29.669Z,7.87
2017-12-12T04:29:39.357Z,7.84
2017-12-12T04:30:49.317Z,7.9
2017-12-12T04:31:59.283Z,7.84
2017-12-12T04:33:08.986Z,7.87
2017-12-12T04:34:18.425Z,7.95
2017-12-12T04:35:28.142Z,8.01
2017-12-12T04:36:38.088Z,7.93
2017-12-12T04:37:47.778Z,7.91
2017-12-12T04:38:57.483Z,7.91
2017-12-12T04:40:07.423Z,7.91
2017-12-12T04:41:17.105Z,7.91
2017-12-12T04:42:27.045Z,8.01
2017-12-12T04:43:36.739Z,7.99
2017-12-12T04:44:46.430Z,7.96
2017-12-12T04:45:56.111Z,7.93
2017-12-12T04:47:05.820Z,7.99
2017-12-12T04:48:15.508Z,7.95
2017-12-12T04:49:25.209Z,7.95
2017-12-12T04:50:35.161Z,7.98
2017-12-12T04:51:45.129Z,8.01
2017-12-12T04:52:55.106Z,7.95
2017-12-12T04:54:04.791Z,7.96
2017-12-12T04:55:14.480Z,8.02
2017-12-12T04:56:24.168Z,8.01
2017-12-12T04:57:34.121Z,8.03
2017-12-12T04:58:43.560Z,8.03
2017-12-12T04:59:53.007Z,8.05
2017-12-12T05:01:02.695Z,7.9
2017-12-12T05:02:12.658Z,8.03
2017-12-12T05:03:22.119Z,7.96
2017-12-12T05:04:32.062Z,8.08
2017-12-12T05:05:42.026Z,8.01
2017-12-12T05:06:51.459Z,8.08
2017-12-12T05:08:01.144Z,8.02
2017-12-12T05:09:10.572Z,8.05
2017-12-12T05:10:20.259Z,8.08
2017-12-12T05:11:30.214Z,8.06
2017-12-12T05:12:39.910Z,8.02
2017-12-12T05:13:49.861Z,8.05
2017-12-12T05:14:59.543Z,8.05
2017-12-12T05:16:08.981Z,8.03
2017-12-12T05:17:18.687Z,8.06
2017-12-12T05:18:28.646Z,8.06
2017-12-12T05:19:38.078Z,8.06
2017-12-12T05:20:47.763Z,8.08
2017-12-12T05:21:57.708Z,8.11
2017-12-12T05:23:08.300Z,8.13
2017-12-12T05:24:17.986Z,8.08
2017-12-12T05:25:27.747Z,8.14
2017-12-12T05:26:37.697Z,8.02
2017-12-12T05:27:46.938Z,8.08
2017-12-12T05:28:56.624Z,8.08
2017-12-12T05:30:05.797Z,8.06
2017-12-12T05:31:15.507Z,8.2
2017-12-12T05:32:25.475Z,8.11
2017-12-12T05:33:35.187Z,8.11
2017-12-12T05:34:45.146Z,8.08
2017-12-12T05:35:55.176Z,8.06
2017-12-12T05:37:04.880Z,8.08
2017-12-12T05:38:14.836Z,8.06
2017-12-12T05:39:24.789Z,8.05
2017-12-12T05:40:34.754Z,8.02
2017-12-12T05:41:43.930Z,8.02
2017-12-12T05:42:53.618Z,8.06
2017-12-12T05:44:03.568Z,8.05
2017-12-12T05:45:13.258Z,8.03
2017-12-12T05:46:23.193Z,8.08
2017-12-12T05:47:32.886Z,8.02
2017-12-12T05:48:42.882Z,8.05
2017-12-12T05:49:52.582Z,8.05
2017-12-12T05:51:02.536Z,8.06
2017-12-12T05:52:11.970Z,8.06
2017-12-12T05:53:21.916Z,8.09
2017-12-12T05:54:31.865Z,8.09
2017-12-12T05:55:41.572Z,8.11
2017-12-12T05:56:50.993Z,8.2
2017-12-12T05:58:00.446Z,8.2
2017-12-12T05:59:09.874Z,8.17
2017-12-12T06:00:19.565Z,8.13
2017-12-12T06:01:29.517Z,8.14
2017-12-12T06:02:39.456Z,8.13
2017-12-12T06:03:49.428Z,8.11
2017-12-12T06:04:59.176Z,8.17
2017-12-12T06:06:08.625Z,8.21
2017-12-12T06:07:18.342Z,8.26
2017-12-12T06:08:28.288Z,8.21
2017-12-12T06:09:38.232Z,8.2
2017-12-12T06:10:48.189Z,8.2
2017-12-12T06:11:57.869Z,8.18
2017-12-12T06:13:07.578Z,8.21
2017-12-12T06:14:16.749Z,8.18
2017-12-12T06:15:26.431Z,8.17
2017-12-12T06:16:36.142Z,8.2
2017-12-12T06:17:46.091Z,8.18
2017-12-12T06:18:56.039Z,8.2
2017-12-12T06:20:06.015Z,8.09
2017-12-12T06:21:16.007Z,8.14
2017-12-12T06:22:26.005Z,8.14
2017-12-12T06:23:35.699Z,8.16
2017-12-12T06:24:45.196Z,8.11
2017-12-12T06:25:55.153Z,8.17
2017-12-12T06:27:04.577Z,8.11
2017-12-12T06:28:14.266Z,8.14
2017-12-12T06:29:23.946Z,8.2
2017-12-12T06:30:33.627Z,8.05
2017-12-12T06:31:43.562Z,8.09
2017-12-12T06:32:52.742Z,8.11
2017-12-12T06:34:02.443Z,8.13
2017-12-12T06:35:12.395Z,8.13
2017-12-12T06:36:22.354Z,8.14
2017-12-12T06:37:32.069Z,8.08
2017-12-12T06:38:41.757Z,8.06
2017-12-12T06:39:51.195Z,8.08
2017-12-12T06:41:00.884Z,8.03
2017-12-12T06:42:10.868Z,8.09
2017-12-12T06:43:20.826Z,8.16
2017-12-12T06:44:30.551Z,8.11
2017-12-12T06:45:40.301Z,8.09
2017-12-12T06:46:50.273Z,8.11
2017-12-12T06:47:59.966Z,8.06
2017-12-12T06:49:09.482Z,8.03
2017-12-12T06:50:18.953Z,8.06
2017-12-12T06:51:28.917Z,8.13
2017-12-12T06:52:38.859Z,8.05
2017-12-12T06:53:48.038Z,8.08
2017-12-12T06:54:57.998Z,8.01
2017-12-12T06:56:07.430Z,8.08
2017-12-12T06:57:17.122Z,8.05
2017-12-12T06:58:26.831Z,8.01
2017-12-12T06:59:36.768Z,7.96
2017-12-12T07:00:46.461Z,8.03
2017-12-12T07:01:56.488Z,8.03
2017-12-12T07:03:05.939Z,8.03
2017-12-12T07:04:15.893Z,8.03
2017-12-12T07:05:25.076Z,8.06
2017-12-12T07:06:34.768Z,8.03
2017-12-12T07:07:43.944Z,7.96
2017-12-12T07:08:53.385Z,7.96
2017-12-12T07:10:03.337Z,8.02
2017-12-12T07:11:13.020Z,8.02
2017-12-12T07:12:22.721Z,7.91
2017-12-12T07:13:32.416Z,7.95
2017-12-12T07:14:41.587Z,7.95
2017-12-12T07:15:51.053Z,7.95
2017-12-12T07:16:59.970Z,7.9
2017-12-12T07:18:09.670Z,7.85
2017-12-12T07:19:19.372Z,7.84
2017-12-12T07:20:29.330Z,7.9
2017-12-12T07:21:39.287Z,7.83
2017-12-12T07:22:48.995Z,7.84
2017-12-12T07:23:58.697Z,7.9
2017-12-12T07:25:08.143Z,7.83
2017-12-12T07:26:17.878Z,7.83
2017-12-12T07:27:27.881Z,7.91
2017-12-12T07:28:37.841Z,7.83
2017-12-12T07:29:47.802Z,7.88
2017-12-12T07:30:57.223Z,7.83
2017-12-12T07:32:06.647Z,7.85
2017-12-12T07:33:16.341Z,7.84
2017-12-12T07:34:26.306Z,7.83
2017-12-12T07:35:36.001Z,7.75
2017-12-12T07:36:45.685Z,7.72
2017-12-12T07:37:55.622Z,7.84
2017-12-12T07:39:05.573Z,7.81
2017-12-12T07:40:15.284Z,7.74
2017-12-12T07:41:24.972Z,7.8
2017-12-12T07:42:34.669Z,7.78
2017-12-12T07:43:44.123Z,7.7
2017-12-12T07:44:54.101Z,7.83
2017-12-12T07:46:03.803Z,7.77
2017-12-12T07:47:13.504Z,7.74
2017-12-12T07:48:23.196Z,7.67
2017-12-12T07:49:32.890Z,7.78
2017-12-12T07:50:42.840Z,7.74
2017-12-12T07:51:52.508Z,7.74
2017-12-12T07:53:02.212Z,7.74
2017-12-12T07:54:11.914Z,7.78
2017-12-12T07:55:21.861Z,7.7
2017-12-12T07:56:31.563Z,7.66
2017-12-12T07:57:41.512Z,7.66
2017-12-12T07:58:51.203Z,7.64
2017-12-12T08:00:01.169Z,7.62
2017-12-12T08:01:10.880Z,7.59
2017-12-12T08:02:20.772Z,7.69
2017-12-12T08:03:30.767Z,7.67
2017-12-12T08:04:40.476Z,7.66
2017-12-12T08:05:50.170Z,7.8
2017-12-12T08:07:00.170Z,7.67
2017-12-12T08:08:09.913Z,7.62
2017-12-12T08:09:19.897Z,7.66
2017-12-12T08:10:29.334Z,7.62
2017-12-12T08:11:39.049Z,7.66
2017-12-12T08:12:49.033Z,7.62
2017-12-12T08:13:58.757Z,7.62
2017-12-12T08:15:08.709Z,7.67
2017-12-12T08:16:18.401Z,7.62
2017-12-12T08:17:28.357Z,7.67
2017-12-12T08:18:38.083Z,7.61
2017-12-12T08:19:47.808Z,7.56
2017-12-12T08:20:57.761Z,7.51
2017-12-12T08:22:07.750Z,7.48
2017-12-12T08:23:17.691Z,7.51
2017-12-12T08:24:27.675Z,7.48
2017-12-12T08:25:37.675Z,7.43
2017-12-12T08:26:47.382Z,7.4
2017-12-12T08:27:57.088Z,7.36
2017-12-12T08:29:07.051Z,7.39
2017-12-12T08:30:16.498Z,7.36
2017-12-12T08:31:26.473Z,7.21
2017-12-12T08:32:36.440Z,7.19
2017-12-12T08:33:46.416Z,7.04
2017-12-12T08:34:56.162Z,7.05
2017-12-12T08:36:06.132Z,6.95
2017-12-12T08:37:16.102Z,6.7
2017-12-12T08:38:25.787Z,6.62
2017-12-12T08:39:35.556Z,6.39
2017-12-12T08:40:45.492Z,6.28
2017-12-12T08:41:55.475Z,6.19
2017-12-12T08:43:05.164Z,6.01
2017-12-12T08:44:14.882Z,5.91
2017-12-12T08:45:24.830Z,5.77
2017-12-12T08:46:34.526Z,5.69
2017-12-12T08:47:44.491Z,5.74
2017-12-12T08:48:54.201Z,5.65
2017-12-12T08:50:04.198Z,5.44
2017-12-12T08:51:14.168Z,5.37
2017-12-12T08:52:23.876Z,5.28
2017-12-12T08:53:33.936Z,5.28
2017-12-12T08:54:43.757Z,5.13
2017-12-12T08:55:53.223Z,5.02
2017-12-12T08:57:02.971Z,5
2017-12-12T08:58:12.922Z,4.98
2017-12-12T08:59:22.608Z,4.84
2017-12-12T09:00:32.603Z,4.83
2017-12-12T09:01:42.552Z,4.83
2017-12-12T09:02:52.269Z,4.7
2017-12-12T09:04:02.247Z,4.75
2017-12-12T09:05:11.551Z,4.83
2017-12-12T09:06:21.495Z,4.74
2017-12-12T09:07:31.489Z,4.67
2017-12-12T09:08:41.452Z,4.67
2017-12-12T09:09:51.188Z,4.67
2017-12-12T09:11:00.887Z,4.7
2017-12-12T09:12:10.850Z,4.71
2017-12-12T09:13:20.803Z,4.63
2017-12-12T09:14:30.769Z,4.64
2017-12-12T09:15:40.210Z,4.58
2017-12-12T09:16:50.154Z,4.6
2017-12-12T09:18:00.118Z,4.53
2017-12-12T09:19:09.562Z,4.53
2017-12-12T09:20:18.999Z,4.5
2017-12-12T09:21:28.708Z,4.52
2017-12-12T09:22:38.398Z,4.53
2017-12-12T09:23:48.365Z,4.52
2017-12-12T09:24:58.064Z,4.46
2017-12-12T09:26:08.053Z,4.46
2017-12-12T09:27:17.746Z,4.52
2017-12-12T09:28:27.768Z,4.45
2017-12-12T09:29:37.746Z,4.39
2017-12-12T09:30:47.189Z,4.42
2017-12-12T09:31:57.134Z,4.45
2017-12-12T09:33:07.102Z,4.38
2017-12-12T09:34:17.073Z,4.45
2017-12-12T09:35:31.190Z,4.36
2017-12-12T09:36:41.199Z,4.45
2017-12-12T09:37:50.909Z,4.42
2017-12-12T09:39:00.358Z,4.34
2017-12-12T09:40:10.105Z,4.36
2017-12-12T09:41:20.074Z,4.31
2017-12-12T09:42:30.019Z,4.36
2017-12-12T09:43:39.448Z,4.25
2017-12-12T09:44:49.647Z,4.45
2017-12-12T09:45:59.105Z,4.39
2017-12-12T09:47:09.059Z,4.43
2017-12-12T09:48:19.045Z,4.4
2017-12-12T09:49:29.042Z,4.39
2017-12-12T09:50:38.995Z,4.46
2017-12-12T09:51:48.684Z,4.43
2017-12-12T09:52:58.675Z,4.4
2017-12-12T09:54:08.660Z,4.43
2017-12-12T09:55:18.409Z,4.49
2017-12-12T09:56:28.113Z,4.39
2017-12-12T09:57:37.827Z,4.36
2017-12-12T09:58:47.786Z,4.52
2017-12-12T09:59:57.489Z,4.45
2017-12-12T10:01:07.458Z,4.5
2017-12-12T10:02:17.448Z,4.4
2017-12-12T10:03:27.398Z,4.46
2017-12-12T10:04:37.117Z,4.42
2017-12-12T10:05:46.575Z,4.34
2017-12-12T10:06:56.282Z,4.34
2017-12-12T10:08:05.724Z,4.31
2017-12-12T10:09:15.698Z,4.27
2017-12-12T10:10:25.412Z,4.24
2017-12-12T10:11:35.124Z,4.28
2017-12-12T10:12:44.838Z,4.27
2017-12-12T10:13:54.798Z,4.24
2017-12-12T10:15:04.757Z,4.18
2017-12-12T10:16:14.712Z,4.22
2017-12-12T10:17:24.144Z,4.14
2017-12-12T10:18:33.844Z,4.12
2017-12-12T10:19:43.350Z,4.16
2017-12-12T10:20:53.041Z,4.09
2017-12-12T10:22:02.468Z,4
2017-12-12T10:23:12.155Z,4.06
2017-12-12T10:24:21.836Z,4.02
2017-12-12T10:25:31.785Z,4.04
2017-12-12T10:26:41.470Z,3.99
2017-12-12T10:27:51.158Z,3.99
2017-12-12T10:29:01.108Z,4.02
2017-12-12T10:30:10.859Z,4.02
2017-12-12T10:31:20.550Z,3.96
2017-12-12T10:32:30.512Z,3.96
2017-12-12T10:33:40.584Z,3.95
2017-12-12T10:34:50.275Z,4
2017-12-12T10:36:00.239Z,4.03
2017-12-12T10:37:09.692Z,3.94
2017-12-12T10:38:19.139Z,4.02
2017-12-12T10:39:29.194Z,3.99
2017-12-12T10:40:39.156Z,4.13
2017-12-12T10:41:49.120Z,4.12
2017-12-12T10:42:59.098Z,3.99
2017-12-12T10:44:09.291Z,4.03
2017-12-12T10:45:18.722Z,4.04
2017-12-12T10:46:28.307Z,4.04
2017-12-12T10:47:38.252Z,4.1
2017-12-12T10:48:48.203Z,4.09
2017-12-12T10:49:58.196Z,4.12
2017-12-12T10:51:07.664Z,4.1
2017-12-12T10:52:17.633Z,4.12
2017-12-12T10:53:27.655Z,4.18
2017-12-12T10:54:37.656Z,4.2
2017-12-12T10:55:47.648Z,4.21
2017-12-12T10:56:57.350Z,4.18
2017-12-12T10:58:07.038Z,4.25
2017-12-12T10:59:17.018Z,4.28
2017-12-12T11:00:26.746Z,4.25
2017-12-12T11:01:36.180Z,4.2
2017-12-12T11:02:45.634Z,4.22
2017-12-12T11:03:55.624Z,4.24
2017-12-12T11:05:05.624Z,4.36
2017-12-12T11:06:14.845Z,4.25
2017-12-12T11:07:24.549Z,4.28
2017-12-12T11:08:34.246Z,4.34
2017-12-12T11:09:44.212Z,4.3
2017-12-12T11:10:53.954Z,4.36
2017-12-12T11:12:03.389Z,4.4
2017-12-12T11:13:13.134Z,4.38
2017-12-12T11:14:23.111Z,4.38
2017-12-12T11:15:32.908Z,4.39
2017-12-12T11:16:42.356Z,4.28
2017-12-12T11:17:52.300Z,4.34
2017-12-12T11:19:02.004Z,4.2
2017-12-12T11:20:11.705Z,4.22
2017-12-12T11:21:21.691Z,4.22
2017-12-12T11:22:31.683Z,4.24
2017-12-12T11:23:41.428Z,4.31
2017-12-12T11:24:50.922Z,4.27
2017-12-12T11:26:00.616Z,4.25
2017-12-12T11:27:10.565Z,4.25
2017-12-12T11:28:20.544Z,4.21
2017-12-12T11:29:30.246Z,4.21
2017-12-12T11:30:39.983Z,4.2
2017-12-12T11:31:49.688Z,4.18
2017-12-12T11:32:59.354Z,4.25
2017-12-12T11:34:09.000Z,4.24
2017-12-12T11:35:18.687Z,4.21
2017-12-12T11:36:28.194Z,4.27
2017-12-12T11:37:37.637Z,4.21
2017-12-12T11:38:47.651Z,4.24
2017-12-12T11:39:57.603Z,4.28
2017-12-12T11:41:07.047Z,4.31
2017-12-12T11:42:17.008Z,4.24
2017-12-12T11:43:26.735Z,4.36
2017-12-12T11:44:36.192Z,4.27
2017-12-12T11:45:46.379Z,4.38
2017-12-12T11:46:56.339Z,4.3
2017-12-12T11:48:06.032Z,4.46
2017-12-12T11:49:14.788Z,4.36
2017-12-12T11:50:24.528Z,4.38
2017-12-12T11:51:34.515Z,4.3
2017-12-12T11:52:44.243Z,4.34
2017-12-12T11:53:53.937Z,4.39
2017-12-12T11:55:03.649Z,4.34
2017-12-12T11:56:13.083Z,4.38
2017-12-12T11:57:22.510Z,4.28
2017-12-12T11:58:32.464Z,4.36
2017-12-12T11:59:42.167Z,4.34
2017-12-12T12:00:51.877Z,4.38
2017-12-12T12:02:01.898Z,4.31
2017-12-12T12:03:11.856Z,4.46
2017-12-12T12:04:21.554Z,4.39
2017-12-12T12:05:31.306Z,4.38
2017-12-12T12:06:41.293Z,4.36
2017-12-12T12:07:51.250Z,4.34
2017-12-12T12:09:00.949Z,4.31
2017-12-12T12:10:10.651Z,4.36
2017-12-12T12:11:20.409Z,4.36
2017-12-12T12:12:30.405Z,4.39
2017-12-12T12:13:40.113Z,4.38
2017-12-12T12:14:49.551Z,4.43
2017-12-12T12:15:59.011Z,4.4
2017-12-12T12:17:08.979Z,4.39
2017-12-12T12:18:18.421Z,4.4
2017-12-12T12:19:28.354Z,4.4
2017-12-12T12:20:38.051Z,4.39
2017-12-12T12:21:48.003Z,4.39
2017-12-12T12:22:57.442Z,4.4
2017-12-12T12:24:07.396Z,4.43
2017-12-12T12:25:17.344Z,4.52
2017-12-12T12:26:27.297Z,4.57
2017-12-12T12:27:36.995Z,4.53
2017-12-12T12:28:46.695Z,4.58
2017-12-12T12:29:56.395Z,4.52
2017-12-12T12:31:06.372Z,4.52
2017-12-12T12:32:16.321Z,4.48
2017-12-12T12:33:25.749Z,4.58
2017-12-12T12:34:35.708Z,4.53
2017-12-12T12:35:44.884Z,4.6
2017-12-12T12:36:54.556Z,4.56
2017-12-12T12:38:04.524Z,4.57
2017-12-12T12:39:14.226Z,4.58
2017-12-12T12:40:24.187Z,4.58
2017-12-12T12:41:33.888Z,4.64
2017-12-12T12:42:43.582Z,4.64
2017-12-12T12:43:53.025Z,4.66
2017-12-12T12:45:02.711Z,4.71
2017-12-12T12:46:12.663Z,4.57
2017-12-12T12:47:22.356Z,4.57
2017-12-12T12:48:32.299Z,4.7
2017-12-12T12:49:42.017Z,4.7
2017-12-12T12:50:51.980Z,4.7
2017-12-12T12:52:09.437Z,4.7
2017-12-12T12:53:18.880Z,4.64
2017-12-12T12:54:28.359Z,4.71
2017-12-12T12:55:38.314Z,4.75
2017-12-12T12:56:48.281Z,4.71
2017-12-12T12:57:58.243Z,4.68
2017-12-12T12:59:07.953Z,4.67
2017-12-12T13:00:17.658Z,4.75
2017-12-12T13:01:27.652Z,4.76
2017-12-12T13:02:37.361Z,4.71
2017-12-12T13:03:47.066Z,4.71
2017-12-12T13:04:56.495Z,4.71
2017-12-12T13:06:06.186Z,4.76
2017-12-12T13:07:16.136Z,4.74
2017-12-12T13:08:25.829Z,4.68
2017-12-12T13:09:35.781Z,4.7
2017-12-12T13:10:45.477Z,4.67
2017-12-12T13:11:55.215Z,4.7
2017-12-12T13:13:04.715Z,4.68
2017-12-12T13:14:14.150Z,4.71
2017-12-12T13:15:24.197Z,4.84
2017-12-12T13:16:33.892Z,4.75
2017-12-12T13:17:43.591Z,4.74
2017-12-12T13:18:53.289Z,4.71
2017-12-12T13:20:03.245Z,4.84
2017-12-12T13:21:12.934Z,4.82
2017-12-12T13:22:22.635Z,4.92
2017-12-12T13:23:32.603Z,4.82
2017-12-12T13:24:42.312Z,4.71
2017-12-12T13:25:52.022Z,4.76
2017-12-12T13:27:02.274Z,4.78
2017-12-12T13:28:11.963Z,4.74
2017-12-12T13:29:21.929Z,4.78
2017-12-12T13:30:31.359Z,4.7
2017-12-12T13:31:41.069Z,4.75
2017-12-12T13:32:50.851Z,4.75
2017-12-12T13:34:00.816Z,4.71
2017-12-12T13:35:10.509Z,4.74
2017-12-12T13:36:20.209Z,4.82
2017-12-12T13:37:29.905Z,4.74
2017-12-12T13:38:39.883Z,4.79
2017-12-12T13:39:49.585Z,4.75
2017-12-12T13:40:59.347Z,4.74
2017-12-12T13:42:09.307Z,4.67
2017-12-12T13:43:18.754Z,4.68
2017-12-12T13:44:28.722Z,4.78
2017-12-12T13:45:38.163Z,4.78
2017-12-12T13:46:47.933Z,4.71
2017-12-12T13:47:57.894Z,4.82
2017-12-12T13:49:07.856Z,4.71
2017-12-12T13:50:17.043Z,4.74
2017-12-12T13:51:26.747Z,4.67
2017-12-12T13:52:36.433Z,4.7
2017-12-12T13:53:46.122Z,4.71
2017-12-12T13:54:55.823Z,4.71
2017-12-12T13:56:05.833Z,4.7
2017-12-12T13:57:15.542Z,4.75
2017-12-12T13:58:25.030Z,4.74
2017-12-12T13:59:34.991Z,4.7
2017-12-12T14:00:44.936Z,4.75
2017-12-12T14:01:54.900Z,4.71
2017-12-12T14:03:04.860Z,4.74
2017-12-12T14:04:14.828Z,4.71
2017-12-12T14:05:24.788Z,4.67
2017-12-12T14:06:34.744Z,4.71
2017-12-12T14:07:44.459Z,4.7
2017-12-12T14:08:54.162Z,4.74
2017-12-12T14:10:04.126Z,4.7
2017-12-12T14:11:14.094Z,4.64
2017-12-12T14:12:23.812Z,4.64
2017-12-12T14:13:33.508Z,4.57
2017-12-12T14:14:43.214Z,4.57
2017-12-12T14:15:52.920Z,4.67
2017-12-12T14:17:02.614Z,4.66
2017-12-12T14:18:12.313Z,4.64
2017-12-12T14:19:22.281Z,4.66
2017-12-12T14:20:32.229Z,4.74
2017-12-12T14:21:42.171Z,4.67
2017-12-12T14:22:51.884Z,4.67
2017-12-12T14:24:01.850Z,4.67
2017-12-12T14:25:11.822Z,4.63
2017-12-12T14:26:21.797Z,4.66
2017-12-12T14:27:31.741Z,4.61
2017-12-12T14:28:41.448Z,4.61
2017-12-12T14:29:51.151Z,4.61
2017-12-12T14:31:00.613Z,4.61
2017-12-12T14:32:10.325Z,4.63
2017-12-12T14:33:20.292Z,4.66
2017-12-12T14:34:29.739Z,4.61
2017-12-12T14:35:39.462Z,4.6
2017-12-12T14:36:49.440Z,4.56
2017-12-12T14:37:58.942Z,4.58
2017-12-12T14:39:08.407Z,4.6
2017-12-12T14:40:17.839Z,4.58
2017-12-12T14:41:27.787Z,4.57
2017-12-12T14:42:37.753Z,4.53
2017-12-12T14:43:47.717Z,4.53
2017-12-12T14:44:57.685Z,4.5
2017-12-12T14:46:07.388Z,4.58
2017-12-12T14:47:17.091Z,4.58
2017-12-12T14:48:27.044Z,4.5
2017-12-12T14:49:36.781Z,4.45
2017-12-12T14:50:46.743Z,4.49
2017-12-12T14:51:56.175Z,4.48
2017-12-12T14:53:05.621Z,4.3
2017-12-12T14:54:15.620Z,4.34
2017-12-12T14:55:24.787Z,4.22
2017-12-12T14:56:34.535Z,4.22
2017-12-12T14:57:43.960Z,4.14
2017-12-12T14:58:53.970Z,4.2
2017-12-12T15:00:03.923Z,4
2017-12-12T15:01:13.878Z,4.09
2017-12-12T15:02:23.832Z,3.99
2017-12-12T15:03:33.254Z,4.04
2017-12-12T15:04:42.935Z,3.99
2017-12-12T15:05:52.372Z,3.95
2017-12-12T15:07:02.314Z,3.99
2017-12-12T15:08:11.997Z,4
2017-12-12T15:09:21.708Z,4
2017-12-12T15:10:31.407Z,3.94
2017-12-12T15:11:41.107Z,3.95
2017-12-12T15:12:51.058Z,3.94
2017-12-12T15:14:00.756Z,3.94
2017-12-12T15:15:10.773Z,3.89
2017-12-12T15:16:20.467Z,3.92
2017-12-12T15:17:30.426Z,3.84
2017-12-12T15:18:40.374Z,3.78
2017-12-12T15:19:49.542Z,3.81
2017-12-12T15:20:59.523Z,3.85
2017-12-12T15:22:09.483Z,3.76
2017-12-12T15:23:19.185Z,3.86
2017-12-12T15:24:28.667Z,3.81
2017-12-12T15:25:38.626Z,3.85
2017-12-12T15:26:48.583Z,3.7
2017-12-12T15:27:58.287Z,3.68
2017-12-12T15:29:08.237Z,3.7
2017-12-12T15:30:18.204Z,3.76
2017-12-12T15:31:28.165Z,3.64
2017-12-12T15:32:37.350Z,3.68